Time;durP1;ratioP1;P1;durP2;ratioP2;P2;SDS_P1;SDS_P2;PMS_P1;PMS_P2;Temp;Humidity;BMP_temperature;BMP_pressure;BME280_temperature;BME280_humidity;BME280_pressure;Samples;Min_cycle;Max_cycle;Signal;HPM_P1;HPM_P2
2022/05/09 00:00:27;;;;;;;;;;;;;;;20.86;49.43;102605.72;5132347;27;20014;-82
2022/05/09 00:02:52;;;;;;;;;;;;;;;20.86;49.35;102600.22;5144190;27;19950;-81
2022/05/09 00:05:19;;;;;;;;;;;;;;;20.86;49.36;102595.53;5118476;27;20416;-81
2022/05/09 00:07:45;;;;;;;;;;;;;;;20.86;49.04;102597.47;5131414;27;20031;-84
2022/05/09 00:10:11;;;;;;;;;;;;;;;20.86;49.06;102601.03;5130504;27;19964;-82
2022/05/09 00:12:36;;;;;;;;;;;;;;;20.85;49.24;102593.06;5138867;27;19919;-81
2022/05/09 00:15:01;;;;;;;;;;;;;;;20.83;48.98;102589.75;5134999;27;19934;-81
2022/05/09 00:17:26;;;;;;;;;;;;;;;20.85;49.15;102604.06;5131678;27;19934;-82
2022/05/09 00:19:52;;;;;;;;;;;;;;;20.85;49.02;102599.41;5137422;27;20272;-81
2022/05/09 00:22:17;;;;;;;;;;;;;;;20.83;48.97;102587.84;5122063;27;19954;-81
2022/05/09 00:24:42;;;;;;;;;;;;;;;20.83;49.02;102587.84;5131539;27;19938;-82
2022/05/09 00:27:07;;;;;;;;;;;;;;;20.83;48.82;102581.53;5104493;27;19968;-87
2022/05/09 00:29:33;;;;;;;;;;;;;;;20.82;48.63;102588.94;5136447;27;19938;-82
2022/05/09 00:31:58;;;;;;;;;;;;;;;20.83;48.93;102584.28;5100923;27;19920;-82
2022/05/09 00:34:24;;;;;;;;;;;;;;;20.82;48.54;102588.13;5117154;27;19994;-84
2022/05/09 00:36:52;;;;;;;;;;;;;;;20.81;48.65;102580.97;5131461;27;20523;-82
2022/05/09 00:39:17;;;;;;;;;;;;;;;20.81;48.53;102580.97;5126393;27;19949;-82
2022/05/09 00:41:43;;;;;;;;;;;;;;;20.80;48.71;102579.31;5117747;27;19934;-82
2022/05/09 00:44:10;;;;;;;;;;;;;;;20.79;48.64;102581.25;5132930;27;19924;-81
2022/05/09 00:46:36;;;;;;;;;;;;;;;20.80;48.40;102579.31;5126827;27;19915;-83
2022/05/09 00:49:19;;;;;;;;;;;;;;;20.79;48.24;102570.25;5115751;27;19930;-82
2022/05/09 00:51:53;;;;;;;;;;;;;;;20.78;48.30;102571.34;5128789;27;19933;-82
2022/05/09 00:54:19;;;;;;;;;;;;;;;20.77;48.40;102580.69;5117240;27;19956;-82
2022/05/09 00:56:49;;;;;;;;;;;;;;;20.75;48.24;102572.69;5120018;27;20373;-82
2022/05/09 00:59:16;;;;;;;;;;;;;;;20.75;48.42;102575.44;5109641;27;20388;-82
2022/05/09 01:01:41;;;;;;;;;;;;;;;20.75;48.24;102578.19;5135708;27;19968;-82
2022/05/09 01:04:11;;;;;;;;;;;;;;;20.74;48.34;102562.81;5116244;27;19943;-85
2022/05/09 01:06:37;;;;;;;;;;;;;;;20.74;48.03;102570.25;5116882;27;19934;-84
2022/05/09 01:09:03;;;;;;;;;;;;;;;20.73;48.30;102569.38;5105808;28;19942;-81
2022/05/09 01:11:29;;;;;;;;;;;;;;;20.72;48.19;102565.00;5115131;27;19937;-82
2022/05/09 01:14:01;;;;;;;;;;;;;;;20.71;47.96;102566.09;5115521;28;19951;-82
2022/05/09 01:16:27;;;;;;;;;;;;;;;20.71;47.87;102570.75;5097269;28;19954;-81
2022/05/09 01:18:52;;;;;;;;;;;;;;;20.71;48.00;102566.09;5114959;28;20423;-81
2022/05/09 01:21:34;;;;;;;;;;;;;;;20.70;48.12;102567.19;5129895;27;20378;-82
2022/05/09 01:23:59;;;;;;;;;;;;;;;20.69;48.01;102561.97;5126710;27;19915;-82
2022/05/09 01:26:25;;;;;;;;;;;;;;;20.67;48.02;102558.66;5119499;27;20299;-81
2022/05/09 01:28:50;;;;;;;;;;;;;;;20.66;48.04;102557.84;5109220;28;20387;-80
2022/05/09 01:31:17;;;;;;;;;;;;;;;20.66;48.19;102549.59;5128859;27;19992;-78
2022/05/09 01:33:44;;;;;;;;;;;;;;;20.65;47.81;102545.19;5127014;27;20398;-82
2022/05/09 01:36:12;;;;;;;;;;;;;;;20.65;47.75;102547.94;5109456;27;19957;-81
2022/05/09 01:38:37;;;;;;;;;;;;;;;20.64;48.17;102546.28;5115990;27;19927;-80
2022/05/09 01:41:03;;;;;;;;;;;;;;;20.64;47.70;102554.53;5113353;28;19975;-80
2022/05/09 01:43:36;;;;;;;;;;;;;;;20.64;47.98;102545.47;5080500;28;20042;-79
2022/05/09 01:46:02;;;;;;;;;;;;;;;20.62;47.82;102545.72;5117403;27;19920;-80
2022/05/09 01:51:12;;;;;;;;;;;;;;;20.62;47.53;102553.16;5135023;27;20331;-85
2022/05/09 01:53:37;;;;;;;;;;;;;;;20.61;47.48;102549.56;5098572;28;19944;-82
2022/05/09 01:56:03;;;;;;;;;;;;;;;20.60;47.80;102545.16;5114779;28;20025;-82
2022/05/09 01:58:28;;;;;;;;;;;;;;;20.60;47.80;102547.91;5130119;27;19920;-81
2022/05/09 02:00:53;;;;;;;;;;;;;;;20.59;47.72;102549.00;5096941;27;19941;-83
2022/05/09 02:03:19;;;;;;;;;;;;;;;20.58;47.76;102550.09;5113061;27;20051;-81
2022/05/09 02:05:44;;;;;;;;;;;;;;;20.58;47.72;102550.09;5116634;27;20369;-81
2022/05/09 02:08:10;;;;;;;;;;;;;;;20.57;47.72;102551.19;5116683;27;19981;-81
2022/05/09 02:10:35;;;;;;;;;;;;;;;20.57;47.58;102547.63;5105456;27;19922;-81
2022/05/09 02:13:00;;;;;;;;;;;;;;;20.56;47.60;102551.44;5115341;27;19931;-81
2022/05/09 02:15:31;;;;;;;;;;;;;;;20.55;47.56;102545.13;5115663;27;19923;-81
2022/05/09 02:17:56;;;;;;;;;;;;;;;20.55;47.30;102544.31;5116843;27;19919;-81
2022/05/09 02:20:22;;;;;;;;;;;;;;;20.55;47.65;102544.31;5099484;28;20014;-81
2022/05/09 02:22:47;;;;;;;;;;;;;;;20.53;47.57;102541.78;5120166;27;19952;-81
2022/05/09 02:25:29;;;;;;;;;;;;;;;20.53;47.54;102541.78;5134451;27;19919;-81
2022/05/09 02:28:02;;;;;;;;;;;;;;;20.52;47.47;102534.66;5134882;27;19941;-81
2022/05/09 02:30:27;;;;;;;;;;;;;;;20.50;47.45;102534.09;5121233;27;19929;-82
2022/05/09 02:32:53;;;;;;;;;;;;;;;20.50;47.28;102537.66;5124224;27;19948;-82
2022/05/09 02:35:19;;;;;;;;;;;;;;;20.50;47.33;102531.34;5125185;27;19920;-86
2022/05/09 02:37:44;;;;;;;;;;;;;;;20.50;47.44;102542.34;5127368;27;20006;-82
2022/05/09 02:40:10;;;;;;;;;;;;;;;20.49;47.21;102546.19;5095493;28;19970;-82
2022/05/09 02:42:35;;;;;;;;;;;;;;;20.48;47.48;102539.84;5114795;27;20000;-81
2022/05/09 02:45:01;;;;;;;;;;;;;;;20.48;47.18;102544.50;5095070;28;19942;-82
2022/05/09 02:47:26;;;;;;;;;;;;;;;20.48;47.19;102533.53;5088472;27;19920;-82
2022/05/09 02:49:52;;;;;;;;;;;;;;;20.48;47.12;102539.03;5114580;27;19919;-82
2022/05/09 02:52:18;;;;;;;;;;;;;;;20.48;47.10;102536.28;5124766;27;20026;-82
2022/05/09 02:54:44;;;;;;;;;;;;;;;20.46;47.07;102536.56;5103024;28;20373;-87
2022/05/09 02:57:09;;;;;;;;;;;;;;;20.46;47.13;102535.72;5109094;28;20362;-82
2022/05/09 02:59:34;;;;;;;;;;;;;;;20.46;47.11;102530.22;5091359;27;20561;-82
2022/05/09 03:02:01;;;;;;;;;;;;;;;20.44;47.30;102527.75;5133790;27;19941;-82
2022/05/09 03:04:38;;;;;;;;;;;;;;;20.44;47.31;102527.75;5094984;28;19930;-82
2022/05/09 03:07:04;;;;;;;;;;;;;;;20.44;47.25;102526.94;5102660;27;20340;-82
2022/05/09 03:09:30;;;;;;;;;;;;;;;20.43;46.99;102531.56;5111790;28;20370;-82
2022/05/09 03:11:56;;;;;;;;;;;;;;;20.42;47.32;102521.72;5113556;28;20388;-82
2022/05/09 03:14:21;;;;;;;;;;;;;;;20.42;46.82;102521.72;5097409;28;19956;-85
2022/05/09 03:16:46;;;;;;;;;;;;;;;20.42;47.12;102524.44;5101742;28;19946;-82
2022/05/09 03:19:12;;;;;;;;;;;;;;;20.41;46.94;102522.81;5111965;28;20025;-81
2022/05/09 03:21:38;;;;;;;;;;;;;;;20.40;47.10;102515.66;5112795;28;20458;-82
2022/05/09 03:24:03;;;;;;;;;;;;;;;20.41;47.08;102510.97;5093079;28;19946;-85
2022/05/09 03:26:28;;;;;;;;;;;;;;;20.40;47.17;102512.09;5115782;28;19970;-82
2022/05/09 03:28:54;;;;;;;;;;;;;;;20.39;46.95;102505.78;5112036;28;19923;-81
2022/05/09 03:31:19;;;;;;;;;;;;;;;20.38;47.17;102517.81;5113966;28;19927;-81
2022/05/09 03:33:45;;;;;;;;;;;;;;;20.39;47.04;102518.69;5100177;28;19933;-81
2022/05/09 03:36:10;;;;;;;;;;;;;;;20.38;47.06;102522.50;5138713;28;19920;-82
2022/05/09 03:38:36;;;;;;;;;;;;;;;20.38;47.07;102523.31;5128643;28;19994;-83
2022/05/09 03:41:02;;;;;;;;;;;;;;;20.37;47.07;102509.88;5134312;28;19940;-82
2022/05/09 03:43:27;;;;;;;;;;;;;;;20.37;46.96;102512.63;5115325;28;20029;-86
2022/05/09 03:45:53;;;;;;;;;;;;;;;20.37;46.95;102512.63;5113852;28;20294;-81
2022/05/09 03:48:18;;;;;;;;;;;;;;;20.36;46.86;102513.69;5125286;28;19930;-82
2022/05/09 03:50:44;;;;;;;;;;;;;;;20.35;47.18;102512.88;5126114;28;20438;-81
2022/05/09 03:53:09;;;;;;;;;;;;;;;20.34;46.84;102510.41;5113085;28;19930;-81
2022/05/09 03:55:35;;;;;;;;;;;;;;;20.34;46.84;102515.91;5112865;28;19973;-81
2022/05/09 03:58:00;;;;;;;;;;;;;;;20.34;46.87;102519.47;5103187;28;20013;-82
2022/05/09 04:00:28;;;;;;;;;;;;;;;20.33;46.90;102517.81;5113555;27;20448;-82
2022/05/09 04:02:53;;;;;;;;;;;;;;;20.31;46.86;102512.59;5102327;27;19949;-81
2022/05/09 04:05:19;;;;;;;;;;;;;;;20.32;46.73;102510.66;5134855;27;19937;-82
2022/05/09 04:07:46;;;;;;;;;;;;;;;20.31;46.79;102507.09;5116358;27;20410;-81
2022/05/09 04:10:12;;;;;;;;;;;;;;;20.31;47.00;102511.78;5116582;28;19930;-81
2022/05/09 04:12:38;;;;;;;;;;;;;;;20.30;46.92;102505.44;5133770;27;19937;-79
2022/05/09 04:17:47;;;;;;;;;;;;;;;20.29;46.73;102501.06;5101352;28;20500;-81
2022/05/09 04:20:12;;;;;;;;;;;;;;;20.29;46.90;102501.06;5114851;27;19927;-81
2022/05/09 04:22:40;;;;;;;;;;;;;;;20.29;46.88;102495.56;5097813;28;19968;-81
2022/05/09 04:25:05;;;;;;;;;;;;;;;20.28;46.70;102496.63;5103492;27;19923;-81
2022/05/09 04:27:32;;;;;;;;;;;;;;;20.29;46.94;102492.00;5118486;27;19976;-86
2022/05/09 04:29:58;;;;;;;;;;;;;;;20.28;46.67;102493.06;5118617;27;19926;-81
2022/05/09 04:32:24;;;;;;;;;;;;;;;20.27;46.99;102497.75;5135981;27;19920;-82
2022/05/09 04:34:49;;;;;;;;;;;;;;;20.27;46.94;102497.75;5118196;27;19933;-82
2022/05/09 04:37:14;;;;;;;;;;;;;;;20.27;46.67;102494.19;5118476;27;20032;-81
2022/05/09 04:39:39;;;;;;;;;;;;;;;20.26;47.03;102496.09;5117897;27;19942;-81
2022/05/09 04:42:05;;;;;;;;;;;;;;;20.26;46.64;102493.34;5136483;27;19923;-82
2022/05/09 04:44:30;;;;;;;;;;;;;;;20.26;46.66;102493.34;5136733;27;20327;-85
2022/05/09 04:46:56;;;;;;;;;;;;;;;20.26;46.81;102487.00;5085894;27;19931;-81
2022/05/09 04:49:21;;;;;;;;;;;;;;;20.26;46.80;102487.88;5116328;27;19930;-82
2022/05/09 04:51:46;;;;;;;;;;;;;;;20.26;46.57;102490.63;5122305;27;19920;-83
2022/05/09 04:54:11;;;;;;;;;;;;;;;20.26;46.60;102489.75;5116391;27;19942;-82
2022/05/09 04:56:36;;;;;;;;;;;;;;;20.26;46.76;102485.13;5101130;27;19992;-82
2022/05/09 04:59:02;;;;;;;;;;;;;;;20.26;46.80;102490.63;5132594;27;20283;-82
2022/05/09 05:01:27;;;;;;;;;;;;;;;20.26;46.73;102485.13;5124968;27;19935;-81
2022/05/09 05:03:52;;;;;;;;;;;;;;;20.27;46.68;102491.44;5097529;28;19954;-81
2022/05/09 05:06:17;;;;;;;;;;;;;;;20.26;46.68;102485.13;5092621;28;19920;-81
2022/05/09 05:08:43;;;;;;;;;;;;;;;20.27;46.53;102483.19;5094445;27;19942;-81
2022/05/09 05:11:08;;;;;;;;;;;;;;;20.26;46.47;102487.00;5117398;27;19915;-82
2022/05/09 05:13:33;;;;;;;;;;;;;;;20.25;46.66;102486.19;5117406;27;19923;-81
2022/05/09 05:15:59;;;;;;;;;;;;;;;20.26;46.43;102487.88;5099881;27;19934;-81
2022/05/09 05:18:26;;;;;;;;;;;;;;;20.27;46.49;102488.69;5135652;27;19916;-82
2022/05/09 05:20:51;;;;;;;;;;;;;;;20.26;46.63;102487.88;5116819;27;19936;-78
2022/05/09 05:23:17;;;;;;;;;;;;;;;20.26;46.33;102487.88;5116905;27;20014;-81
2022/05/09 05:25:45;;;;;;;;;;;;;;;20.27;46.78;102488.69;5116959;27;20055;-81
2022/05/09 05:28:10;;;;;;;;;;;;;;;20.27;46.68;102483.19;5116752;27;19948;-81
2022/05/09 05:30:35;;;;;;;;;;;;;;;20.27;46.53;102488.69;5114535;27;19945;-83
2022/05/09 05:33:02;;;;;;;;;;;;;;;20.27;46.72;102495.00;5096268;28;20010;-75
2022/05/09 05:35:28;;;;;;;;;;;;;;;20.28;46.84;102493.06;5114487;27;20067;-81
2022/05/09 05:37:54;;;;;;;;;;;;;;;20.30;46.80;102488.16;5126100;27;19940;-79
2022/05/09 05:40:20;;;;;;;;;;;;;;;20.32;46.95;102486.78;5099840;27;20379;-80
2022/05/09 05:42:47;;;;;;;;;;;;;;;20.34;46.89;102489.28;5132842;27;19965;-80
2022/05/09 05:45:13;;;;;;;;;;;;;;;20.35;47.11;102484.63;5115153;28;19939;-79
2022/05/09 05:47:39;;;;;;;;;;;;;;;20.35;47.04;102481.88;5133931;27;19915;-86
2022/05/09 05:50:05;;;;;;;;;;;;;;;20.35;46.97;102485.44;5134789;27;19915;-79
2022/05/09 05:52:31;;;;;;;;;;;;;;;20.35;47.07;102485.44;5135077;27;19931;-81
2022/05/09 05:54:56;;;;;;;;;;;;;;;20.35;47.08;102481.88;5099765;27;19920;-81
2022/05/09 05:57:24;;;;;;;;;;;;;;;20.36;47.00;102481.63;5113656;27;20455;-81
2022/05/09 05:59:54;;;;;;;;;;;;;;;20.36;47.12;102491.75;5099480;27;19979;-81
2022/05/09 06:02:20;;;;;;;;;;;;;;;20.35;47.22;102484.63;5132838;27;19946;-81
2022/05/09 06:04:45;;;;;;;;;;;;;;;20.35;47.13;102490.09;5114976;27;19936;-81
2022/05/09 06:07:12;;;;;;;;;;;;;;;20.35;47.08;102493.66;5126888;27;19941;-82
2022/05/09 06:09:38;;;;;;;;;;;;;;;20.35;47.09;102485.44;5130469;27;19947;-84
2022/05/09 06:12:03;;;;;;;;;;;;;;;20.36;47.04;102491.75;5115103;27;20006;-84
2022/05/09 06:14:28;;;;;;;;;;;;;;;20.36;47.02;102495.34;5098230;27;19931;-85
2022/05/09 06:16:54;;;;;;;;;;;;;;;20.37;46.93;102496.16;5094951;28;19961;-84
2022/05/09 06:19:21;;;;;;;;;;;;;;;20.37;47.17;102494.22;5086093;27;20411;-84
2022/05/09 06:21:46;;;;;;;;;;;;;;;20.37;47.03;102488.75;5097725;27;20334;-85
2022/05/09 06:24:13;;;;;;;;;;;;;;;20.37;47.14;102482.44;5117257;27;19927;-85
2022/05/09 06:26:40;;;;;;;;;;;;;;;20.37;46.94;102485.19;5113379;28;19930;-84
2022/05/09 06:29:06;;;;;;;;;;;;;;;20.36;47.15;102484.34;5107158;27;19968;-85
2022/05/09 06:31:32;;;;;;;;;;;;;;;20.37;46.93;102479.69;5095424;28;20069;-84
2022/05/09 06:33:57;;;;;;;;;;;;;;;20.37;47.03;102486.00;5106898;28;20006;-84
2022/05/09 06:36:22;;;;;;;;;;;;;;;20.36;47.12;102478.88;5114157;28;19965;-81
2022/05/09 06:38:47;;;;;;;;;;;;;;;20.37;46.81;102485.19;5088203;27;19941;-84
2022/05/09 06:41:13;;;;;;;;;;;;;;;20.37;47.03;102485.19;5099140;27;19923;-86
2022/05/09 06:43:39;;;;;;;;;;;;;;;20.36;46.99;102486.25;5098914;27;19956;-86
2022/05/09 06:46:04;;;;;;;;;;;;;;;20.36;46.95;102481.63;5115499;27;20023;-85
2022/05/09 06:48:29;;;;;;;;;;;;;;;20.36;46.90;102489.84;5112531;28;19959;-87
2022/05/09 06:50:54;;;;;;;;;;;;;;;20.36;47.06;102489.84;5109184;27;19920;-85
2022/05/09 06:53:20;;;;;;;;;;;;;;;20.36;47.13;102486.25;5115744;27;20010;-85
2022/05/09 06:55:46;;;;;;;;;;;;;;;20.35;47.03;102485.44;5102924;27;19931;-86
2022/05/09 06:58:14;;;;;;;;;;;;;;;20.34;47.13;102483.78;5131664;27;19920;-84
2022/05/09 07:00:39;;;;;;;;;;;;;;;20.35;46.83;102481.88;5132511;27;19942;-84
2022/05/09 07:03:04;;;;;;;;;;;;;;;20.34;46.78;102478.31;5097215;27;20098;-82
2022/05/09 07:05:30;;;;;;;;;;;;;;;20.34;46.77;102472.81;5112308;27;19923;-84
2022/05/09 07:07:56;;;;;;;;;;;;;;;20.33;46.74;102482.13;5110329;28;20052;-86
2022/05/09 07:10:21;;;;;;;;;;;;;;;20.34;46.75;102482.97;5102392;28;19941;-86
2022/05/09 07:12:51;;;;;;;;;;;;;;;20.32;46.90;102475.81;5131353;28;19964;-87
2022/05/09 07:15:22;;;;;;;;;;;;;;;20.31;46.96;102479.66;5102576;28;19924;-83
2022/05/09 07:17:50;;;;;;;;;;;;;;;20.32;46.93;102480.47;5114088;28;19948;-86
2022/05/09 07:20:16;;;;;;;;;;;;;;;20.31;47.02;102476.91;5112970;28;19938;-85
2022/05/09 07:22:41;;;;;;;;;;;;;;;20.32;46.71;102480.47;5108125;28;19981;-85
2022/05/09 07:25:08;;;;;;;;;;;;;;;20.31;46.76;102479.66;5111819;28;20413;-85
2022/05/09 07:27:33;;;;;;;;;;;;;;;20.32;46.89;102477.75;5112511;28;20286;-85
2022/05/09 07:29:58;;;;;;;;;;;;;;;20.31;46.96;102476.91;5131311;28;19946;-85
2022/05/09 07:32:24;;;;;;;;;;;;;;;20.31;46.76;102476.91;5094916;28;19942;-84
2022/05/09 07:34:49;;;;;;;;;;;;;;;20.32;46.83;102480.47;5114691;27;19920;-84
2022/05/09 07:37:15;;;;;;;;;;;;;;;20.32;46.90;102477.75;5115509;27;20312;-84
2022/05/09 07:39:40;;;;;;;;;;;;;;;20.31;46.75;102479.66;5116655;27;20017;-84
2022/05/09 07:42:06;;;;;;;;;;;;;;;20.31;46.58;102476.91;5098489;27;19951;-84
2022/05/09 07:44:32;;;;;;;;;;;;;;;20.32;46.62;102481.31;5099528;27;19942;-84
2022/05/09 07:46:57;;;;;;;;;;;;;;;20.32;46.84;102481.31;5115349;27;19961;-85
2022/05/09 07:49:22;;;;;;;;;;;;;;;20.31;46.43;102476.09;5114667;27;19919;-84
2022/05/09 07:51:48;;;;;;;;;;;;;;;20.33;46.56;102484.88;5088713;27;19972;-85
2022/05/09 07:54:14;;;;;;;;;;;;;;;20.31;46.95;102471.44;5109006;27;20375;-85
2022/05/09 07:56:39;;;;;;;;;;;;;;;20.32;46.75;102473.06;5123234;27;19976;-84
2022/05/09 07:59:04;;;;;;;;;;;;;;;20.32;46.73;102480.47;5118643;27;20060;-85
2022/05/09 08:01:29;;;;;;;;;;;;;;;20.34;46.81;102481.06;5096399;27;19920;-84
2022/05/09 08:03:57;;;;;;;;;;;;;;;20.33;46.66;102484.88;5115029;28;19954;-85
2022/05/09 08:06:22;;;;;;;;;;;;;;;20.34;46.75;102475.56;5095709;27;19920;-84
2022/05/09 08:08:48;;;;;;;;;;;;;;;20.35;46.52;102482.69;5121199;27;19930;-85
2022/05/09 08:11:16;;;;;;;;;;;;;;;20.35;46.38;102476.38;5089831;27;20006;-84
2022/05/09 08:13:42;;;;;;;;;;;;;;;20.34;46.48;102477.47;5111619;27;19950;-85
2022/05/09 08:16:07;;;;;;;;;;;;;;;20.34;46.75;102482.97;5114848;27;20014;-87
2022/05/09 08:18:33;;;;;;;;;;;;;;;20.35;46.79;102484.63;5115498;27;19916;-85
2022/05/09 08:20:59;;;;;;;;;;;;;;;20.35;46.59;102481.88;5097021;27;20320;-85
2022/05/09 08:23:25;;;;;;;;;;;;;;;20.36;46.63;102478.03;5109516;27;19952;-84
2022/05/09 08:25:51;;;;;;;;;;;;;;;20.36;46.51;102481.63;5112172;27;19927;-84
2022/05/09 08:28:18;;;;;;;;;;;;;;;20.36;46.43;102475.28;5148404;27;19926;-88
2022/05/09 08:30:44;;;;;;;;;;;;;;;20.37;46.47;102471.44;5128604;27;19934;-86
2022/05/09 08:33:11;;;;;;;;;;;;;;;20.37;46.71;102472.28;5115238;27;20382;-85
2022/05/09 08:35:36;;;;;;;;;;;;;;;20.37;46.62;102471.44;5135888;27;19944;-88
2022/05/09 08:38:01;;;;;;;;;;;;;;;20.38;46.59;102470.34;5133003;27;19963;-86
2022/05/09 08:40:33;;;;;;;;;;;;;;;20.38;46.50;102473.09;5108019;28;19938;-86
2022/05/09 08:43:08;;;;;;;;;;;;;;;20.39;46.22;102469.28;5122026;27;19989;-87
2022/05/09 08:45:36;;;;;;;;;;;;;;;20.39;46.69;102472.03;5123913;27;19940;-87
2022/05/09 08:48:14;;;;;;;;;;;;;;;20.39;46.61;102469.28;5116717;27;20009;-86
2022/05/09 08:50:39;;;;;;;;;;;;;;;20.40;46.38;102471.72;5109876;28;20425;-87
2022/05/09 08:53:15;;;;;;;;;;;;;;;20.41;46.44;102472.56;5129927;27;19942;-87
2022/05/09 08:55:42;;;;;;;;;;;;;;;20.41;46.46;102467.91;5114091;27;19936;-87
2022/05/09 08:58:14;;;;;;;;;;;;;;;20.42;46.59;102464.06;5111890;28;19919;-87
2022/05/09 09:00:40;;;;;;;;;;;;;;;20.42;46.48;102463.25;5110851;27;20373;-88
2022/05/09 09:03:15;;;;;;;;;;;;;;;20.43;46.75;102467.63;5115352;27;20002;-88
2022/05/09 09:05:42;;;;;;;;;;;;;;;20.43;46.46;102471.19;5111471;28;20032;-87
2022/05/09 09:08:09;;;;;;;;;;;;;;;20.43;46.46;102468.44;5113318;27;19939;-88
2022/05/09 09:10:48;;;;;;;;;;;;;;;20.44;46.66;102458.31;5134039;27;19986;-85
2022/05/09 09:13:19;;;;;;;;;;;;;;;20.45;46.31;102460.78;5101345;28;20384;-88
2022/05/09 09:15:47;;;;;;;;;;;;;;;20.45;46.35;102460.78;5114150;28;19926;-87
2022/05/09 09:18:23;;;;;;;;;;;;;;;20.46;46.55;102451.47;5127194;27;19916;-87
2022/05/09 09:21:11;;;;;;;;;;;;;;;20.46;46.58;102451.47;5133705;27;19929;-87
2022/05/09 09:23:48;;;;;;;;;;;;;;;20.46;46.34;102437.75;5126288;27;19926;-88
2022/05/09 09:26:49;;;;;;;;;;;;;;;20.47;46.50;102442.13;5121669;27;19947;-83
2022/05/09 09:29:14;;;;;;;;;;;;;;;20.48;46.49;102443.75;5031803;28;20032;-88
2022/05/09 09:31:45;;;;;;;;;;;;;;;20.48;46.37;102443.75;5108879;27;20118;-87
2022/05/09 09:34:29;;;;;;;;;;;;;;;20.48;46.43;102441.03;5116402;27;19916;-88
2022/05/09 09:37:05;;;;;;;;;;;;;;;20.49;46.16;102436.38;5116146;27;19998;-87
2022/05/09 09:39:31;;;;;;;;;;;;;;;20.49;46.19;102437.19;5106363;28;19974;-84
2022/05/09 09:41:56;;;;;;;;;;;;;;;20.50;46.53;102441.59;5108141;27;20341;-82
2022/05/09 09:44:23;;;;;;;;;;;;;;;20.51;46.25;102431.41;5097034;27;19964;-83
2022/05/09 09:47:06;;;;;;;;;;;;;;;20.52;46.57;102436.66;5114952;27;20018;-83
2022/05/09 09:49:32;;;;;;;;;;;;;;;20.53;46.50;102430.06;5111237;27;19960;-83
2022/05/09 09:51:58;;;;;;;;;;;;;;;20.53;46.50;102427.31;5112430;27;19944;-83
2022/05/09 09:54:27;;;;;;;;;;;;;;;20.55;46.36;102429.00;5098915;27;19919;-83
2022/05/09 09:56:53;;;;;;;;;;;;;;;20.56;46.45;102416.94;5110667;28;19939;-83
2022/05/09 09:59:30;;;;;;;;;;;;;;;20.57;46.51;102418.59;5088377;27;19919;-83
2022/05/09 10:02:01;;;;;;;;;;;;;;;20.58;46.43;102420.22;5100745;27;20393;-83
2022/05/09 10:04:28;;;;;;;;;;;;;;;20.59;46.33;102419.13;5113538;27;19930;-84
2022/05/09 10:06:59;;;;;;;;;;;;;;;20.59;46.50;102419.13;5114660;27;19955;-83
2022/05/09 10:09:26;;;;;;;;;;;;;;;20.60;46.42;102416.13;5102411;27;19937;-83
2022/05/09 10:11:51;;;;;;;;;;;;;;;20.61;46.46;102417.75;5131658;27;20275;-83
2022/05/09 10:14:30;;;;;;;;;;;;;;;20.62;46.68;102413.13;5092064;28;19969;-83
2022/05/09 10:17:11;;;;;;;;;;;;;;;20.63;46.67;102406.53;5110225;28;20217;-83
2022/05/09 10:19:37;;;;;;;;;;;;;;;20.63;46.53;102401.03;5110249;28;19941;-83
2022/05/09 10:25:04;;;;;;;;;;;;;;;20.65;46.69;102398.84;5094226;28;20366;-83
2022/05/09 10:27:30;;;;;;;;;;;;;;;20.65;46.72;102394.19;5088828;28;19923;-83
2022/05/09 10:29:58;;;;;;;;;;;;;;;20.66;46.44;102395.84;5106727;28;19938;-83
2022/05/09 10:32:28;;;;;;;;;;;;;;;20.67;46.64;102396.66;5096598;28;19940;-83
2022/05/09 10:35:00;;;;;;;;;;;;;;;20.69;46.45;102397.22;5102491;28;20348;-85
2022/05/09 10:37:38;;;;;;;;;;;;;;;20.69;46.42;102388.97;5098514;28;19923;-82
2022/05/09 10:40:25;;;;;;;;;;;;;;;20.69;46.60;102389.81;5109500;28;20078;-81
2022/05/09 10:43:03;;;;;;;;;;;;;;;20.71;46.49;102387.63;5110236;28;20004;-82
2022/05/09 10:45:31;;;;;;;;;;;;;;;20.72;46.65;102392.00;5109441;28;19976;-83
2022/05/09 10:47:56;;;;;;;;;;;;;;;20.72;46.75;102385.69;5109029;28;19927;-83
2022/05/09 10:50:49;;;;;;;;;;;;;;;20.73;46.48;102373.59;5107902;28;20279;-83
2022/05/09 10:53:33;;;;;;;;;;;;;;;20.74;46.59;102369.78;5100348;28;20011;-82
2022/05/09 10:56:27;;;;;;;;;;;;;;;20.74;46.70;102367.84;5094906;28;20459;-82
2022/05/09 10:59:09;;;;;;;;;;;;;;;20.74;46.73;102370.59;5084615;28;20018;-82
2022/05/09 11:01:37;;;;;;;;;;;;;;;20.77;46.53;102368.41;5110165;28;19930;-82
2022/05/09 11:04:03;;;;;;;;;;;;;;;20.77;46.78;102360.16;5109328;28;19955;-82
2022/05/09 11:06:37;;;;;;;;;;;;;;;20.78;46.79;102356.31;5108032;28;19915;-82
2022/05/09 11:09:13;;;;;;;;;;;;;;;20.78;46.78;102356.31;5104731;28;19998;-82
2022/05/09 11:11:50;;;;;;;;;;;;;;;20.79;46.65;102358.78;5109254;28;19942;-83
2022/05/09 11:14:22;;;;;;;;;;;;;;;20.79;46.68;102346.97;5100479;28;19958;-86
2022/05/09 11:17:05;;;;;;;;;;;;;;;20.80;46.48;102343.13;5102169;28;19920;-85
2022/05/09 11:19:30;;;;;;;;;;;;;;;20.81;46.71;102344.78;5108062;28;19920;-85
2022/05/09 11:21:59;;;;;;;;;;;;;;;20.81;46.62;102334.59;5104355;28;19931;-85
2022/05/09 11:24:36;;;;;;;;;;;;;;;20.82;46.48;102340.94;5108294;28;20037;-87
2022/05/09 11:27:13;;;;;;;;;;;;;;;20.83;46.61;102343.41;5096941;28;19968;-85
2022/05/09 11:29:42;;;;;;;;;;;;;;;20.83;46.46;102337.91;5111732;28;19920;-86
2022/05/09 11:32:13;;;;;;;;;;;;;;;20.85;46.44;102341.22;5103085;28;19949;-85
2022/05/09 11:34:57;;;;;;;;;;;;;;;20.85;46.70;102329.41;5097953;28;19927;-86
2022/05/09 11:37:22;;;;;;;;;;;;;;;20.86;46.72;102325.56;5108054;28;20279;-86
2022/05/09 11:39:48;;;;;;;;;;;;;;;20.87;46.44;102329.97;5114164;28;20380;-86
2022/05/09 11:45:16;;;;;;;;;;;;;;;20.88;46.40;102318.69;5098171;28;19969;-87
2022/05/09 11:47:48;;;;;;;;;;;;;;;20.88;46.66;102320.63;5094843;28;19916;-87
2022/05/09 11:50:28;;;;;;;;;;;;;;;20.89;46.36;102317.59;5094114;28;20286;-87
2022/05/09 11:52:54;;;;;;;;;;;;;;;20.90;46.55;102313.75;5106563;28;19928;-87
2022/05/09 11:55:21;;;;;;;;;;;;;;;20.90;46.67;102319.25;5103128;28;19927;-86
2022/05/09 11:57:49;;;;;;;;;;;;;;;20.91;46.42;102311.81;5107822;28;19966;-87
2022/05/09 12:00:26;;;;;;;;;;;;;;;20.92;46.44;102308.00;5095506;28;19939;-88
2022/05/09 12:02:54;;;;;;;;;;;;;;;20.92;46.61;102316.22;5104700;28;20010;-86
2022/05/09 12:05:25;;;;;;;;;;;;;;;20.93;46.50;102310.44;5107635;28;19924;-86
2022/05/09 12:07:55;;;;;;;;;;;;;;;20.94;46.50;102297.53;5109301;28;20279;-86
2022/05/09 12:10:27;;;;;;;;;;;;;;;20.94;46.42;102297.53;5108348;28;19928;-87
2022/05/09 12:12:56;;;;;;;;;;;;;;;20.95;46.60;102307.44;5109130;28;20259;-85
2022/05/09 12:15:21;;;;;;;;;;;;;;;20.96;46.60;102292.59;5124831;28;19961;-86
2022/05/09 12:18:00;;;;;;;;;;;;;;;20.96;46.65;102293.44;5103878;28;19920;-86
2022/05/09 12:20:28;;;;;;;;;;;;;;;20.98;46.43;102287.66;5107466;27;20431;-86
2022/05/09 12:22:58;;;;;;;;;;;;;;;20.97;46.25;102288.75;5112629;28;19950;-86
2022/05/09 12:25:41;;;;;;;;;;;;;;;20.98;46.31;102284.91;5106593;27;19941;-87
2022/05/09 12:28:16;;;;;;;;;;;;;;;20.99;46.31;102277.47;5116841;27;20441;-86
2022/05/09 12:31:02;;;;;;;;;;;;;;;21.00;46.60;102279.16;5135984;27;19925;-87
2022/05/09 12:33:30;;;;;;;;;;;;;;;21.00;46.38;102274.47;5116550;27;19933;-86
2022/05/09 12:35:58;;;;;;;;;;;;;;;21.02;46.44;102263.22;5134696;27;19922;-86
2022/05/09 12:38:28;;;;;;;;;;;;;;;21.02;46.35;102258.53;5115076;27;20264;-86
2022/05/09 12:41:02;;;;;;;;;;;;;;;21.02;46.32;102253.03;5115342;27;20032;-87
2022/05/09 12:43:28;;;;;;;;;;;;;;;21.03;46.21;102245.63;5097258;27;19953;-87
2022/05/09 12:45:54;;;;;;;;;;;;;;;21.03;46.22;102249.19;5098124;27;19953;-86
2022/05/09 12:48:19;;;;;;;;;;;;;;;21.04;46.58;102241.75;5117109;27;19943;-88
2022/05/09 12:50:45;;;;;;;;;;;;;;;21.05;46.39;102240.69;5117154;27;19942;-83